Time;durP1;ratioP1;P1;durP2;ratioP2;P2;SDS_P1;SDS_P2;PMS_P1;PMS_P2;Temp;Humidity;BMP_temperature;BMP_pressure;BME280_temperature;BME280_humidity;BME280_pressure;Samples;Min_cycle;Max_cycle;Signal;HPM_P1;HPM_P2
2022/03/07 00:02:08;;;;;;;3.25;2.15;;;;;;;14.11;47.18;102548.03;5050123;28;20088;-74
2022/03/07 00:04:36;;;;;;;4.40;2.30;;;;;;;13.96;47.94;102543.03;5049832;28;20061;-74
2022/03/07 00:07:05;;;;;;;3.97;2.55;;;;;;;13.77;47.08;102541.31;5052881;28;20048;-74
2022/03/07 00:09:36;;;;;;;3.55;2.65;;;;;;;13.61;49.73;102542.34;5049953;28;20754;-76
2022/03/07 00:12:05;;;;;;;4.03;2.72;;;;;;;13.56;48.58;102541.25;5049028;28;20049;-76
2022/03/07 00:14:35;;;;;;;4.03;2.50;;;;;;;13.56;49.41;102540.34;5046689;28;20052;-77
2022/03/07 00:17:04;;;;;;;3.90;2.15;;;;;;;13.56;48.10;102533.44;5061918;28;20481;-76
2022/03/07 00:19:33;;;;;;;5.50;3.03;;;;;;;13.53;47.72;102533.28;5050116;28;20049;-76
2022/03/07 00:22:01;;;;;;;3.47;2.38;;;;;;;13.48;49.42;102537.41;5050254;28;20119;-73
2022/03/07 00:24:30;;;;;;;3.00;2.08;;;;;;;13.45;49.41;102526.88;5049310;28;20065;-76
2022/03/07 00:26:58;;;;;;;4.30;2.33;;;;;;;13.48;49.31;102532.19;5050742;28;20067;-77
2022/03/07 00:29:27;;;;;;;4.00;2.28;;;;;;;13.54;48.55;102527.28;5049700;28;20049;-77
2022/03/07 00:31:57;;;;;;;3.58;2.17;;;;;;;13.61;49.04;102523.25;5049127;28;20466;-76
2022/03/07 00:34:26;;;;;;;3.67;2.28;;;;;;;13.69;49.16;102526.19;5049416;28;20077;-76
2022/03/07 00:36:55;;;;;;;2.65;1.90;;;;;;;13.71;48.86;102529.75;5048981;28;20099;-77
2022/03/07 00:39:23;;;;;;;4.97;2.13;;;;;;;13.70;48.74;102533.16;5049598;28;20048;-77
2022/03/07 00:41:52;;;;;;;4.32;2.17;;;;;;;13.65;49.13;102527.75;5048726;28;20446;-76
2022/03/07 00:44:20;;;;;;;3.30;1.92;;;;;;;13.59;49.27;102527.50;5049052;28;20501;-77
2022/03/07 00:46:49;;;;;;;3.00;1.73;;;;;;;13.51;49.70;102531.44;5048882;28;20049;-77
2022/03/07 00:49:19;;;;;;;2.90;2.00;;;;;;;13.44;48.88;102527.66;5049512;28;20057;-76
2022/03/07 00:51:47;;;;;;;3.80;1.98;;;;;;;13.45;49.41;102532.06;5048779;28;20495;-76
2022/03/07 00:54:16;;;;;;;7.20;1.98;;;;;;;13.48;50.56;102527.00;5049516;28;20099;-74
2022/03/07 00:56:45;;;;;;;2.55;1.90;;;;;;;13.49;50.32;102528.78;5049174;28;20797;-74
2022/03/07 00:59:13;;;;;;;3.17;2.22;;;;;;;13.48;50.95;102532.19;5049073;28;20077;-72
2022/03/07 01:01:42;;;;;;;3.33;2.15;;;;;;;13.46;48.83;102530.34;5049266;28;20095;-71
2022/03/07 01:04:11;;;;;;;9.15;2.78;;;;;;;13.39;50.83;102519.66;5050761;28;20045;-72
2022/03/07 01:06:41;;;;;;;5.28;3.05;;;;;;;13.47;51.73;102535.63;5048121;28;20498;-71
2022/03/07 01:09:09;;;;;;;5.32;3.60;;;;;;;13.45;51.66;102541.59;5048649;28;20499;-72
2022/03/07 01:11:38;;;;;;;5.22;3.63;;;;;;;13.40;52.56;102544.84;5047835;28;20490;-73
2022/03/07 01:14:07;;;;;;;5.88;3.22;;;;;;;13.40;52.48;102543.97;5049031;28;20049;-72
2022/03/07 01:16:35;;;;;;;6.13;3.22;;;;;;;13.39;52.43;102548.25;5048556;28;20053;-71
2022/03/07 01:19:04;;;;;;;6.93;3.72;;;;;;;13.36;53.13;102552.44;5049030;28;20053;-71
2022/03/07 01:21:32;;;;;;;6.57;3.80;;;;;;;13.34;52.76;102554.97;5048615;28;20088;-71
2022/03/07 01:24:02;;;;;;;6.00;3.42;;;;;;;13.30;52.18;102557.34;5048260;28;20107;-72
2022/03/07 01:26:31;;;;;;;4.50;2.97;;;;;;;13.27;52.99;102559.78;5050345;28;20107;-72
2022/03/07 01:28:59;;;;;;;7.40;4.07;;;;;;;13.23;53.04;102560.44;5028271;28;20057;-70
2022/03/07 01:31:28;;;;;;;7.13;3.35;;;;;;;13.16;53.32;102561.84;5028743;28;20462;-74
2022/03/07 01:33:56;;;;;;;3.88;2.85;;;;;;;13.09;53.05;102560.66;5028161;28;20049;-70
2022/03/07 01:36:25;;;;;;;4.28;3.00;;;;;;;13.00;54.05;102563.69;5028735;28;20049;-71
2022/03/07 01:38:53;;;;;;;4.97;3.17;;;;;;;12.96;53.28;102566.09;5028527;28;20046;-72
2022/03/07 01:41:24;;;;;;;6.53;3.20;;;;;;;12.89;53.89;102564.00;5028838;28;20124;-70
2022/03/07 01:43:52;;;;;;;5.78;2.90;;;;;;;12.82;54.53;102567.13;5028295;28;20053;-70
2022/03/07 01:46:21;;;;;;;6.38;3.05;;;;;;;12.76;54.47;102565.13;5029577;28;20075;-70
2022/03/07 01:48:50;;;;;;;9.10;2.92;;;;;;;12.72;54.99;102574.47;5032554;28;20053;-71
2022/03/07 01:51:23;;;;;;;5.57;2.90;;;;;;;12.64;54.96;102569.69;5032743;28;20146;-70
2022/03/07 01:53:51;;;;;;;5.97;3.22;;;;;;;12.56;54.58;102574.50;5032488;28;20137;-70
2022/03/07 01:56:20;;;;;;;8.82;3.72;;;;;;;12.48;55.09;102581.88;5032689;28;20076;-70
2022/03/07 01:58:50;;;;;;;6.50;3.55;;;;;;;12.35;56.13;102585.59;5033771;28;20089;-70
2022/03/07 02:01:18;;;;;;;5.30;3.53;;;;;;;12.19;57.34;102585.59;5033666;28;20045;-71
2022/03/07 02:03:47;;;;;;;4.22;3.30;;;;;;;12.03;57.53;102585.63;5031865;28;20046;-71
2022/03/07 02:06:16;;;;;;;6.00;3.60;;;;;;;11.87;58.12;102577.03;5032027;28;20103;-71
2022/03/07 02:08:46;;;;;;;6.40;3.63;;;;;;;11.68;59.80;102575.13;5032235;28;20060;-71
2022/03/07 02:11:17;;;;;;;5.60;3.15;;;;;;;11.55;61.94;102575.25;5032790;28;20079;-70
2022/03/07 02:13:45;;;;;;;5.95;2.97;;;;;;;11.45;60.54;102579.03;5017647;28;20111;-71
2022/03/07 02:16:17;;;;;;;5.05;3.03;;;;;;;11.34;61.16;102580.16;5030331;28;20049;-72
2022/03/07 02:18:45;;;;;;;4.63;3.10;;;;;;;11.24;62.17;102581.31;5032425;28;20053;-71
2022/03/07 02:21:15;;;;;;;3.72;2.78;;;;;;;11.20;67.16;102596.59;5032242;28;20103;-70
2022/03/07 02:23:47;;;;;;;3.90;2.65;;;;;;;11.07;68.15;102595.03;5030705;28;20049;-70
2022/03/07 02:26:18;;;;;;;6.05;2.80;;;;;;;10.96;66.37;102596.13;5032406;28;20093;-72
2022/03/07 02:28:48;;;;;;;6.78;3.50;;;;;;;10.92;64.43;102594.16;5050068;28;20463;-71
2022/03/07 02:31:19;;;;;;;4.68;2.75;;;;;;;10.89;64.70;102605.22;5051673;28;20490;-71
2022/03/07 02:33:48;;;;;;;6.70;3.20;;;;;;;10.87;63.76;102599.06;5051086;28;20049;-71
2022/03/07 02:36:16;;;;;;;7.47;3.05;;;;;;;10.85;63.54;102600.66;5051514;28;20077;-72
2022/03/07 02:38:47;;;;;;;4.05;2.72;;;;;;;10.83;63.67;102610.03;5051668;28;20118;-72
2022/03/07 02:41:15;;;;;;;4.60;2.90;;;;;;;10.78;63.96;102604.59;5051466;28;20045;-72
2022/03/07 02:43:44;;;;;;;5.93;3.30;;;;;;;10.71;64.80;102607.63;5051101;28;20510;-72
2022/03/07 02:46:12;;;;;;;7.07;2.97;;;;;;;10.66;65.37;102609.06;5051433;28;20048;-71
2022/03/07 02:48:41;;;;;;;6.20;3.58;;;;;;;10.60;64.34;102614.75;5050540;28;20049;-72
2022/03/07 02:51:10;;;;;;;4.00;2.78;;;;;;;10.51;65.50;102611.63;5050016;28;20053;-71
2022/03/07 02:53:38;;;;;;;4.47;2.75;;;;;;;10.37;66.18;102617.69;5050223;28;20049;-71
2022/03/07 02:56:08;;;;;;;4.55;2.80;;;;;;;10.27;66.54;102624.84;5052621;28;20071;-71
2022/03/07 02:58:37;;;;;;;6.57;3.08;;;;;;;10.20;66.81;102625.28;5040307;28;20041;-71
2022/03/07 03:01:06;;;;;;;4.53;2.70;;;;;;;10.15;67.40;102620.66;5047658;28;20111;-71
2022/03/07 03:03:34;;;;;;;4.07;2.83;;;;;;;10.11;67.65;102634.19;5050968;28;20491;-72
2022/03/07 03:06:03;;;;;;;7.53;2.83;;;;;;;10.04;68.57;102628.63;5050930;28;20067;-72
2022/03/07 03:08:32;;;;;;;6.85;3.55;;;;;;;9.93;68.48;102624.47;5051440;28;20128;-72
2022/03/07 03:11:01;;;;;;;6.10;3.30;;;;;;;9.91;68.87;102631.25;5050988;28;20114;-72
2022/03/07 03:13:31;;;;;;;6.55;3.22;;;;;;;9.85;69.01;102639.53;5036233;28;20084;-72
2022/03/07 03:16:00;;;;;;;6.05;3.45;;;;;;;9.77;68.80;102640.72;5050984;28;20065;-72
2022/03/07 03:18:29;;;;;;;5.22;2.95;;;;;;;9.68;68.31;102641.84;5051366;28;20510;-72
2022/03/07 03:20:57;;;;;;;7.18;3.88;;;;;;;9.60;69.55;102642.25;5050876;28;20053;-72
2022/03/07 03:23:25;;;;;;;9.23;4.00;;;;;;;9.54;70.09;102644.44;5050638;28;20503;-72
2022/03/07 03:25:54;;;;;;;6.00;3.72;;;;;;;9.49;71.00;102643.28;5050023;28;20052;-72
2022/03/07 03:28:23;;;;;;;9.27;4.65;;;;;;;9.42;71.54;102639.41;5051680;28;20053;-72
2022/03/07 03:30:54;;;;;;;11.70;6.50;;;;;;;9.36;71.94;102648.44;5050303;28;20052;-72
2022/03/07 03:33:22;;;;;;;13.25;5.57;;;;;;;9.31;72.49;102653.31;5050309;28;20526;-72
2022/03/07 03:35:51;;;;;;;11.23;5.07;;;;;;;9.27;73.16;102653.00;5050257;28;20053;-72
2022/03/07 03:38:20;;;;;;;7.85;4.97;;;;;;;9.22;73.77;102655.28;5051368;28;20087;-72
2022/03/07 03:40:48;;;;;;;7.03;4.25;;;;;;;9.17;74.26;102659.25;5050050;28;20065;-72
2022/03/07 03:43:16;;;;;;;8.95;4.68;;;;;;;9.10;73.93;102652.81;5050264;28;20081;-72
2022/03/07 03:45:45;;;;;;;9.25;4.30;;;;;;;9.03;74.28;102650.63;5050202;28;20041;-72
2022/03/07 03:48:15;;;;;;;10.25;5.43;;;;;;;8.97;76.69;102648.50;5050191;28;20490;-73
2022/03/07 03:50:43;;;;;;;7.65;5.25;;;;;;;8.95;78.02;102659.53;5050024;28;20057;-72
2022/03/07 03:53:12;;;;;;;8.10;4.15;;;;;;;8.89;76.58;102664.31;5049866;28;20141;-73
2022/03/07 03:55:40;;;;;;;11.90;5.00;;;;;;;8.85;76.70;102668.34;5052839;28;20049;-74
2022/03/07 03:58:09;;;;;;;8.18;4.15;;;;;;;8.81;77.12;102676.66;5043801;28;20053;-74
2022/03/07 04:00:38;;;;;;;8.98;4.65;;;;;;;8.75;77.53;102673.66;5042893;28;20506;-74
2022/03/07 04:03:06;;;;;;;10.73;4.90;;;;;;;8.70;78.19;102672.47;5049746;28;20041;-74
2022/03/07 04:05:36;;;;;;;10.77;5.80;;;;;;;8.66;78.09;102679.13;5049443;28;20052;-73
2022/03/07 04:08:05;;;;;;;12.90;6.68;;;;;;;8.63;78.59;102681.47;5049989;28;20084;-74
2022/03/07 04:10:34;;;;;;;10.88;6.03;;;;;;;8.49;77.52;102672.78;5049225;28;20454;-73
2022/03/07 04:13:02;;;;;;;16.02;6.93;;;;;;;8.50;78.26;102695.25;5035290;28;20091;-73
2022/03/07 04:15:31;;;;;;;15.18;8.05;;;;;;;8.44;78.15;102684.50;5038197;28;20049;-73
2022/03/07 04:17:59;;;;;;;17.65;7.22;;;;;;;8.39;79.21;102696.16;5049548;28;20049;-72
2022/03/07 04:20:28;;;;;;;17.30;8.05;;;;;;;8.34;78.14;102687.19;5049415;28;20089;-71
2022/03/07 04:22:58;;;;;;;11.82;7.53;;;;;;;8.26;76.92;102690.91;5048865;28;20098;-71
2022/03/07 04:25:26;;;;;;;14.50;6.78;;;;;;;8.18;78.23;102685.22;5049650;28;20045;-73
2022/03/07 04:27:55;;;;;;;14.05;5.95;;;;;;;8.06;82.24;102687.81;5050226;28;20057;-72
2022/03/07 04:30:23;;;;;;;5.47;3.40;;;;;;;7.93;92.24;102686.06;5049396;28;20041;-70
2022/03/07 04:32:52;;;;;;;8.70;4.55;;;;;;;7.79;100.00;102685.84;5048762;28;20267;-72
2022/03/07 04:35:20;;;;;;;6.70;4.28;;;;;;;7.73;100.00;102692.38;5049258;28;20052;-70
2022/03/07 04:37:49;;;;;;;7.40;4.50;;;;;;;7.71;100.00;102696.50;5049519;28;20063;-70
2022/03/07 04:40:19;;;;;;;7.90;4.43;;;;;;;7.69;100.00;102690.34;5048959;28;20140;-69
2022/03/07 04:42:48;;;;;;;6.85;4.22;;;;;;;7.66;100.00;102697.88;5048986;28;20057;-70
2022/03/07 04:45:16;;;;;;;13.60;5.85;;;;;;;7.65;100.00;102693.53;5049161;28;20045;-71
2022/03/07 04:47:45;;;;;;;11.35;4.40;;;;;;;7.62;100.00;102688.13;5049280;28;20052;-69
2022/03/07 04:50:14;;;;;;;11.15;4.55;;;;;;;7.58;100.00;102691.25;5049351;28;20577;-71
2022/03/07 04:52:43;;;;;;;9.82;4.95;;;;;;;7.54;100.00;102708.19;5051543;28;20560;-71
2022/03/07 04:55:12;;;;;;;9.05;5.07;;;;;;;7.49;100.00;102698.31;5050202;28;20138;-69
2022/03/07 04:57:44;;;;;;;10.07;5.47;;;;;;;7.47;100.00;102699.91;5046802;28;20041;-73
2022/03/07 05:00:14;;;;;;;10.05;5.53;;;;;;;7.43;100.00;102703.94;5038745;28;20135;-71
2022/03/07 05:02:43;;;;;;;8.75;4.82;;;;;;;7.40;100.00;102702.78;5048642;28;20608;-72
2022/03/07 05:05:11;;;;;;;9.18;4.93;;;;;;;7.39;100.00;102708.75;5049314;28;20521;-72
2022/03/07 05:07:40;;;;;;;9.05;4.90;;;;;;;7.36;100.00;102726.56;5049376;28;20475;-71
2022/03/07 05:10:09;;;;;;;12.48;4.88;;;;;;;7.32;100.00;102731.44;5048582;28;20049;-72
2022/03/07 05:12:37;;;;;;;13.68;6.15;;;;;;;7.21;100.00;102729.75;5048283;28;20497;-73
2022/03/07 05:15:08;;;;;;;10.63;5.40;;;;;;;7.02;100.00;102724.03;5046070;28;20045;-72
2022/03/07 05:17:45;;;;;;;10.32;4.90;;;;;;;7.04;100.00;102743.06;5049204;28;20045;-74
2022/03/07 05:20:14;;;;;;;8.57;5.00;;;;;;;7.02;100.00;102754.91;5048684;28;20052;-72
2022/03/07 05:22:43;;;;;;;10.50;5.32;;;;;;;7.01;100.00;102745.38;5047864;28;20503;-72
2022/03/07 05:25:13;;;;;;;8.90;5.03;;;;;;;6.98;100.00;102745.16;5048745;28;20045;-71
2022/03/07 05:27:41;;;;;;;14.15;6.78;;;;;;;6.96;100.00;102745.03;5044174;28;20053;-72
2022/03/07 05:30:15;;;;;;;15.13;6.85;;;;;;;6.94;100.00;102751.75;5040685;28;20561;-72
2022/03/07 05:32:43;;;;;;;18.95;8.02;;;;;;;6.90;100.00;102752.31;5048379;28;20049;-72
2022/03/07 05:35:12;;;;;;;16.33;8.80;;;;;;;6.87;100.00;102758.13;5048557;28;20041;-72
2022/03/07 05:37:41;;;;;;;16.48;8.07;;;;;;;6.82;100.00;102762.00;5048583;28;20191;-72
2022/03/07 05:40:11;;;;;;;26.55;11.45;;;;;;;6.77;100.00;102762.44;5049166;28;20053;-72
2022/03/07 05:42:40;;;;;;;23.17;9.95;;;;;;;6.71;100.00;102763.75;5048222;28;20041;-71
2022/03/07 05:45:16;;;;;;;16.80;7.55;;;;;;;6.67;100.00;102769.44;5048687;28;20593;-72
2022/03/07 05:47:45;;;;;;;18.27;8.57;;;;;;;6.63;100.00;102766.50;5048301;28;20041;-72
2022/03/07 05:50:14;;;;;;;18.58;6.65;;;;;;;6.60;100.00;102762.03;5048820;28;20053;-71
2022/03/07 05:52:43;;;;;;;14.35;6.82;;;;;;;6.58;100.00;102757.56;5051396;28;20075;-71
2022/03/07 05:55:12;;;;;;;10.93;5.93;;;;;;;6.53;100.00;102754.63;5048622;28;20053;-72
2022/03/07 05:57:41;;;;;;;11.82;5.40;;;;;;;6.49;100.00;102750.91;5048484;28;20048;-72
2022/03/07 06:00:12;;;;;;;11.73;6.05;;;;;;;6.46;100.00;102745.53;5048511;28;20151;-72
2022/03/07 06:02:41;;;;;;;13.77;5.90;;;;;;;6.43;100.00;102749.53;5047782;28;20129;-73
2022/03/07 06:05:10;;;;;;;12.70;5.53;;;;;;;6.38;100.00;102746.59;5048169;28;20059;-72
2022/03/07 06:07:40;;;;;;;12.05;6.32;;;;;;;6.37;100.00;102738.75;5048765;28;20045;-73
2022/03/07 06:10:09;;;;;;;15.23;5.88;;;;;;;6.33;100.00;102736.75;5047963;28;20180;-73
2022/03/07 06:12:40;;;;;;;12.10;5.28;;;;;;;6.30;100.00;102737.41;5047980;28;20084;-71
2022/03/07 06:15:10;;;;;;;9.70;5.40;;;;;;;6.27;100.00;102738.03;5045968;28;20068;-70
2022/03/07 06:17:49;;;;;;;10.35;5.45;;;;;;;6.25;100.00;102742.19;5047979;28;20049;-70
2022/03/07 06:20:18;;;;;;;11.43;5.20;;;;;;;6.21;100.00;102746.97;5048105;28;20056;-71
2022/03/07 06:22:46;;;;;;;9.35;5.10;;;;;;;6.15;100.00;102756.75;5047936;28;20052;-71
2022/03/07 06:25:15;;;;;;;9.50;4.18;;;;;;;6.11;100.00;102764.97;5048156;28;20057;-71
2022/03/07 06:27:43;;;;;;;9.88;5.22;;;;;;;6.05;100.00;102756.00;5049256;28;20099;-72
2022/03/07 06:30:12;;;;;;;7.05;4.05;;;;;;;5.99;100.00;102765.78;5048127;28;20132;-70
2022/03/07 06:32:42;;;;;;;13.25;4.65;;;;;;;5.94;100.00;102771.31;5047316;28;20049;-71
2022/03/07 06:35:11;;;;;;;9.80;4.75;;;;;;;5.89;100.00;102763.22;5051995;28;20102;-71
2022/03/07 06:37:39;;;;;;;8.05;4.57;;;;;;;5.86;100.00;102781.88;5050989;28;20115;-71
2022/03/07 06:40:09;;;;;;;11.25;4.85;;;;;;;5.83;100.00;102789.31;5052110;28;20080;-71
2022/03/07 06:42:37;;;;;;;9.20;4.55;;;;;;;5.76;100.00;102791.25;5051402;28;20095;-70
2022/03/07 06:45:07;;;;;;;8.43;4.13;;;;;;;5.67;100.00;102797.44;5050879;28;20083;-71
2022/03/07 06:47:36;;;;;;;8.50;4.78;;;;;;;5.65;100.00;102814.38;5051594;28;20049;-71
2022/03/07 06:50:07;;;;;;;6.75;4.53;;;;;;;5.65;100.00;102804.13;5037612;28;20075;-71
2022/03/07 06:52:35;;;;;;;10.77;4.65;;;;;;;5.60;100.00;102800.28;5054855;28;20102;-71
2022/03/07 06:55:05;;;;;;;9.43;4.65;;;;;;;5.56;100.00;102808.50;5050742;28;20106;-71
2022/03/07 06:57:33;;;;;;;8.60;4.43;;;;;;;5.56;100.00;102802.47;5050182;28;20103;-71
2022/03/07 07:00:02;;;;;;;6.28;4.15;;;;;;;5.56;100.00;102793.09;5038966;28;20056;-71
2022/03/07 07:02:30;;;;;;;7.68;4.22;;;;;;;5.52;100.00;102796.19;5050989;28;20041;-71
2022/03/07 07:04:59;;;;;;;7.78;4.05;;;;;;;5.48;100.00;102799.28;5051071;28;20053;-72
2022/03/07 07:07:29;;;;;;;6.35;3.70;;;;;;;5.45;100.00;102805.06;5051439;28;20049;-72
2022/03/07 07:09:57;;;;;;;7.82;3.58;;;;;;;5.43;100.00;102804.03;5050955;28;20052;-72
2022/03/07 07:12:26;;;;;;;7.45;4.05;;;;;;;5.43;100.00;102805.72;5041350;28;20084;-72
2022/03/07 07:14:54;;;;;;;11.55;4.38;;;;;;;5.40;100.00;102811.47;5046255;28;20114;-72
2022/03/07 07:17:23;;;;;;;8.30;4.05;;;;;;;5.40;100.00;102810.56;5050999;28;20053;-72
2022/03/07 07:19:51;;;;;;;8.05;4.05;;;;;;;5.38;100.00;102812.09;5050826;28;20102;-72
2022/03/07 07:22:20;;;;;;;8.98;3.83;;;;;;;5.36;100.00;102809.44;5050213;28;20041;-72
2022/03/07 07:24:50;;;;;;;8.30;4.30;;;;;;;5.35;100.00;102802.47;5050785;28;20551;-71
2022/03/07 07:27:20;;;;;;;11.00;4.65;;;;;;;5.32;100.00;102816.75;5051494;28;20053;-71
2022/03/07 07:29:48;;;;;;;7.93;4.30;;;;;;;5.31;100.00;102822.63;5050060;28;20580;-71
2022/03/07 07:32:19;;;;;;;9.63;4.53;;;;;;;5.30;100.00;102815.72;5049053;28;20355;-71
2022/03/07 07:34:48;;;;;;;7.18;3.97;;;;;;;5.22;100.00;102815.06;5049614;28;20290;-71
2022/03/07 07:37:17;;;;;;;9.60;4.53;;;;;;;5.12;100.00;102813.38;5049869;28;20068;-72
2022/03/07 07:39:46;;;;;;;8.10;4.20;;;;;;;5.02;100.00;102824.53;5050313;28;20148;-72
2022/03/07 07:42:16;;;;;;;7.80;4.28;;;;;;;4.95;100.00;102824.78;5050344;28;20110;-72
2022/03/07 07:44:45;;;;;;;8.52;4.88;;;;;;;4.95;100.00;102818.78;5036031;28;20061;-72
2022/03/07 07:47:14;;;;;;;8.25;4.85;;;;;;;4.95;100.00;102826.47;5050351;28;20057;-72
2022/03/07 07:49:42;;;;;;;7.72;4.20;;;;;;;4.97;100.00;102828.41;5049707;28;20128;-72
2022/03/07 07:52:11;;;;;;;7.57;4.32;;;;;;;4.96;100.00;102833.38;5050324;28;20107;-72
2022/03/07 07:54:39;;;;;;;10.93;4.38;;;;;;;4.96;100.00;102834.28;5052821;28;20057;-72
2022/03/07 07:57:10;;;;;;;8.32;4.38;;;;;;;4.96;100.00;102825.69;5050487;28;20052;-71
2022/03/07 07:59:40;;;;;;;8.65;4.20;;;;;;;4.95;100.00;102817.09;5050210;28;20051;-71
2022/03/07 08:02:12;;;;;;;8.55;4.10;;;;;;;4.95;100.00;102804.28;5049516;28;20085;-72
2022/03/07 08:04:40;;;;;;;8.00;4.03;;;;;;;4.95;100.00;102805.94;5050318;28;20084;-72
2022/03/07 08:07:09;;;;;;;7.18;4.57;;;;;;;4.95;100.00;102791.44;5049736;28;20057;-72
2022/03/07 08:09:38;;;;;;;9.73;4.97;;;;;;;4.93;100.00;102799.78;5049698;28;20052;-71
2022/03/07 08:12:07;;;;;;;9.00;5.20;;;;;;;4.96;100.00;102802.59;5043409;28;20045;-71
2022/03/07 08:14:36;;;;;;;10.32;4.55;;;;;;;4.95;100.00;102817.09;5042452;28;20557;-71
2022/03/07 08:17:06;;;;;;;8.65;4.78;;;;;;;4.93;100.00;102808.38;5049756;28;20639;-71
2022/03/07 08:19:35;;;;;;;7.97;4.03;;;;;;;4.81;100.00;102805.66;5049777;28;20080;-72
2022/03/07 08:22:04;;;;;;;10.35;4.43;;;;;;;4.69;100.00;102809.72;5049199;28;20057;-71
2022/03/07 08:24:32;;;;;;;7.72;3.63;;;;;;;4.59;100.00;102818.28;5049468;28;20064;-71
2022/03/07 08:27:01;;;;;;;7.38;4.30;;;;;;;4.50;100.00;102811.47;5049655;28;20053;-71
2022/03/07 08:29:29;;;;;;;8.65;3.60;;;;;;;4.40;100.00;102818.38;5050339;28;20056;-70
2022/03/07 08:31:58;;;;;;;7.93;3.78;;;;;;;4.33;100.00;102821.16;5049426;28;20044;-71
2022/03/07 08:34:28;;;;;;;7.95;3.58;;;;;;;4.29;100.00;102821.66;5036223;28;20060;-71
2022/03/07 08:36:56;;;;;;;6.43;3.53;;;;;;;4.30;100.00;102823.44;5049135;28;20055;-71
2022/03/07 08:39:25;;;;;;;6.95;3.40;;;;;;;4.34;100.00;102824.63;5049544;28;20080;-71
2022/03/07 08:41:54;;;;;;;8.40;3.47;;;;;;;4.35;100.00;102824.75;5048896;28;20045;-71
2022/03/07 08:44:22;;;;;;;7.00;3.42;;;;;;;4.36;100.00;102818.84;5048519;28;20049;-71
2022/03/07 08:46:51;;;;;;;6.28;3.10;;;;;;;4.38;100.00;102819.88;5048642;28;20041;-71
2022/03/07 08:49:22;;;;;;;11.02;3.85;;;;;;;4.40;100.00;102820.03;5049007;28;20672;-71
2022/03/07 08:51:52;;;;;;;6.10;3.90;;;;;;;4.41;100.00;102822.72;5035551;28;20049;-71
2022/03/07 08:54:21;;;;;;;7.97;4.03;;;;;;;4.42;100.00;102826.16;5052117;28;20556;-70
2022/03/07 08:56:49;;;;;;;9.75;3.95;;;;;;;4.41;100.00;102832.06;5048258;28;20465;-71
2022/03/07 08:59:17;;;;;;;8.85;3.42;;;;;;;4.39;100.00;102829.38;5044294;28;20099;-71
2022/03/07 09:01:46;;;;;;;7.68;3.50;;;;;;;4.35;100.00;102826.41;5048373;28;20659;-71
2022/03/07 09:04:14;;;;;;;9.10;3.67;;;;;;;4.25;100.00;102828.94;5048716;28;20073;-71
2022/03/07 09:06:43;;;;;;;7.03;3.58;;;;;;;4.20;100.00;102828.53;5048904;28;20150;-71
2022/03/07 09:09:14;;;;;;;6.22;3.92;;;;;;;4.16;100.00;102818.75;5048664;28;20057;-71
2022/03/07 09:11:42;;;;;;;5.65;3.47;;;;;;;4.15;100.00;102822.09;5047050;28;20044;-71
2022/03/07 09:14:11;;;;;;;6.00;3.63;;;;;;;4.17;100.00;102825.69;5048484;28;20558;-71
2022/03/07 09:16:39;;;;;;;8.25;3.75;;;;;;;4.20;100.00;102836.22;5047952;28;20051;-71
2022/03/07 09:19:10;;;;;;;5.38;3.25;;;;;;;4.23;100.00;102836.47;5049241;28;20056;-71
2022/03/07 09:21:39;;;;;;;6.60;3.40;;;;;;;4.22;100.00;102823.53;5048336;28;20135;-71
2022/03/07 09:24:12;;;;;;;6.68;3.50;;;;;;;4.22;100.00;102828.66;5048297;28;20138;-71
2022/03/07 09:26:40;;;;;;;6.63;3.83;;;;;;;4.22;100.00;102827.00;5048719;28;20049;-71
2022/03/07 09:29:10;;;;;;;11.35;4.03;;;;;;;4.13;100.00;102839.00;5048899;28;20075;-71
2022/03/07 09:31:39;;;;;;;5.88;2.75;;;;;;;3.96;100.00;102847.72;5050559;28;20048;-71
2022/03/07 09:34:08;;;;;;;6.63;3.28;;;;;;;3.86;100.00;102845.09;5048174;28;20601;-71
2022/03/07 09:36:37;;;;;;;8.55;3.97;;;;;;;3.82;100.00;102855.84;5048161;28;20079;-71
2022/03/07 09:39:07;;;;;;;6.57;3.03;;;;;;;3.81;100.00;102854.94;5048755;28;20053;-71
2022/03/07 09:41:37;;;;;;;5.88;2.80;;;;;;;3.79;100.00;102856.47;5048542;28;20319;-71
2022/03/07 09:44:08;;;;;;;6.35;3.05;;;;;;;3.72;100.00;102855.00;5047967;28;20210;-71
2022/03/07 09:46:38;;;;;;;5.75;3.25;;;;;;;3.73;100.00;102861.94;5048166;28;20076;-71
2022/03/07 09:49:09;;;;;;;4.85;2.67;;;;;;;3.77;100.00;102845.16;5048488;28;20529;-71
2022/03/07 09:51:37;;;;;;;8.75;3.05;;;;;;;3.79;100.00;102841.09;5047987;28;20491;-71
2022/03/07 09:54:13;;;;;;;6.35;3.28;;;;;;;3.82;100.00;102840.47;5048139;28;20049;-71
2022/03/07 09:56:43;;;;;;;7.55;3.33;;;;;;;3.81;100.00;102852.38;5048351;28;20056;-71
2022/03/07 09:59:12;;;;;;;7.05;3.90;;;;;;;3.81;100.00;102847.25;5044091;28;20049;-71
2022/03/07 10:01:41;;;;;;;8.27;3.53;;;;;;;3.82;100.00;102851.59;5047897;28;20056;-71
2022/03/07 10:04:11;;;;;;;9.10;3.97;;;;;;;3.82;100.00;102850.72;5040074;28;20096;-71
2022/03/07 10:06:42;;;;;;;6.03;3.50;;;;;;;3.79;100.00;102856.47;5030581;28;20388;-71
2022/03/07 10:09:10;;;;;;;9.07;4.10;;;;;;;3.76;100.00;102848.50;5044250;28;20141;-71
2022/03/07 10:11:39;;;;;;;7.30;3.55;;;;;;;3.78;100.00;102849.56;5046449;28;20053;-70
2022/03/07 10:14:09;;;;;;;8.65;4.28;;;;;;;3.76;100.00;102845.94;5038915;28;20053;-71
2022/03/07 10:16:39;;;;;;;10.23;4.72;;;;;;;3.74;100.00;102852.59;5051595;28;20407;-71
2022/03/07 10:19:10;;;;;;;9.27;4.88;;;;;;;3.71;100.00;102849.72;5051527;28;20049;-71
2022/03/07 10:21:46;;;;;;;10.23;5.22;;;;;;;3.70;100.00;102858.19;5046899;28;20148;-71
2022/03/07 10:24:14;;;;;;;9.18;4.50;;;;;;;3.68;100.00;102852.03;5043913;28;20055;-70
2022/03/07 10:26:43;;;;;;;8.95;4.45;;;;;;;3.68;100.00;102859.69;5051504;28;20122;-70
2022/03/07 10:29:13;;;;;;;9.82;4.57;;;;;;;3.67;100.00;102865.59;5053075;28;20057;-70
2022/03/07 10:31:46;;;;;;;11.60;4.82;;;;;;;3.64;100.00;102862.75;5052726;28;20049;-70
2022/03/07 10:34:15;;;;;;;8.75;5.28;;;;;;;3.62;100.00;102857.50;5053840;28;20044;-70
2022/03/07 10:36:45;;;;;;;11.88;4.65;;;;;;;3.61;100.00;102871.03;5052803;28;20549;-70
2022/03/07 10:39:15;;;;;;;12.95;5.30;;;;;;;3.58;100.00;102864.75;5043423;28;20116;-71
2022/03/07 10:41:47;;;;;;;7.90;4.30;;;;;;;3.54;100.00;102861.91;5046960;28;20084;-69
2022/03/07 10:44:37;;;;;;;10.98;4.43;;;;;;;3.51;100.00;102868.41;5051621;28;20560;-70
2022/03/07 10:47:11;;;;;;;8.18;4.35;;;;;;;3.47;100.00;102856.97;5051563;28;20416;-70
2022/03/07 10:49:50;;;;;;;7.68;4.00;;;;;;;3.45;100.00;102868.72;5031754;28;20037;-70
2022/03/07 10:52:19;;;;;;;9.30;4.32;;;;;;;3.44;100.00;102860.94;5034445;28;20150;-70
2022/03/07 10:54:49;;;;;;;6.75;4.15;;;;;;;3.40;100.00;102872.53;5042706;28;20052;-70
2022/03/07 10:57:19;;;;;;;8.75;4.47;;;;;;;3.38;100.00;102863.81;5051098;28;20148;-70
2022/03/07 10:59:52;;;;;;;10.20;4.40;;;;;;;3.29;100.00;102863.84;5051769;28;20087;-70
2022/03/07 11:02:21;;;;;;;7.85;4.55;;;;;;;3.35;100.00;102869.56;5050768;28;20049;-69
2022/03/07 11:04:50;;;;;;;7.72;4.20;;;;;;;3.36;100.00;102870.44;5051599;28;20067;-70
2022/03/07 11:07:19;;;;;;;10.00;4.43;;;;;;;3.37;100.00;102864.59;5050936;28;20107;-70
2022/03/07 11:09:52;;;;;;;9.90;4.25;;;;;;;3.35;100.00;102871.22;5050974;28;20081;-70
2022/03/07 11:12:20;;;;;;;;;;;;;;;3.34;100.00;102861.72;5047479;28;20045;-70
2022/03/07 11:14:51;;;;;;;9.65;4.35;;;;;;;3.28;100.00;102858.63;5048290;28;19925;-70
2022/03/07 11:17:20;;;;;;;10.50;4.30;;;;;;;3.18;100.00;102858.50;5044582;28;20158;-70
2022/03/07 11:19:53;;;;;;;12.02;4.03;;;;;;;3.07;100.00;102855.88;5050304;28;20103;-70
2022/03/07 11:22:22;;;;;;;6.07;3.85;;;;;;;3.00;100.00;102863.72;5047773;28;20061;-69
2022/03/07 11:24:51;;;;;;;7.72;4.18;;;;;;;3.01;100.00;102868.06;5040428;28;20111;-69
2022/03/07 11:27:20;;;;;;;10.05;4.13;;;;;;;3.04;100.00;102872.56;5050216;28;20132;-70
2022/03/07 11:29:50;;;;;;;8.70;4.18;;;;;;;3.04;100.00;102878.56;5051810;28;20518;-70
2022/03/07 11:32:19;;;;;;;9.93;4.60;;;;;;;3.02;100.00;102869.84;5050276;28;20098;-70
2022/03/07 11:34:55;;;;;;;9.00;4.85;;;;;;;3.02;100.00;102874.06;5039713;28;20131;-70